Aérodrome :
LOGIN :

S'inscrire | Disclaimer

   EN    FR    IT 

 










Légende :    VFR   VFR Marginal   IFR   IFR Intensif   IFR Très Intensif
Visi : 
Plafond : 
>= 8 km
>= 3000ft
5 à 8 km
1000 à 3000 ft
1500m à 5 km
500 à 1000 ft
800 à 1500m
200 à 500 ft
< 800m
< 200 ft
Symboles :   Orages  Brouillard  Fortes neiges  Fortes précipitations  Vent > 20 kt
SIGMETs :   Divers  Orages  Givrage  Turbulence  Onde Orograph.  Cendres Volcan.






- Altitude de l'aérodrome : 147 ft
- Code IATA : DUS


EDDL - Düsseldorf Int.

DERNIER METAR :
  • 271150Z 15011KT 120V190 9000 -RA SCT010 BKN013 04/02 Q0997 TEMPO 09010KT RA

METARs EXPIRÉS :
  • 271120Z 18015KT 9999 -RA FEW010 BKN020 04/01 Q0997 NOSIG
  • 271050Z 17012KT 130V190 9999 -RA SCT022 SCT040 05/01 Q0998 NOSIG
  • 271020Z 15010KT 120V190 9999 FEW025 05/01 Q0999 NOSIG
  • 270950Z 15010KT 9999 FEW036 05/01 Q1000 NOSIG
  • 270920Z 16011KT 9999 -RA SCT036 04/01 Q1000 NOSIG

TAF TAF EDDL
Valide du 27 à 12h jusqu'au 28 à 18h UTC


271100Z 2712/2818 15012KT 9999 BKN020
BECMG 2712/2715 09010KT BKN012
TEMPO 2712/2717 4000 RA BKN008
BECMG 2715/2717 36008KT
BECMG 2717/2719 29008KT
TEMPO 2717/2723 2500 -SNRA BKN006
PROB30
TEMPO 2718/2722 1200 SN BKN004
TEMPO 2800/2803 BKN008
BECMG 2803/2806 22008KT SCT015
BECMG 2815/2818 16014KT



MET'MAP, la Météo Aéronautique d'un coup d'oeil ! - Copyright ORBIFLY Décembre 2007 - Disclaimer

ORBIFLY MET'MAP TEAM :

Programmation & Développement : Alexandra Zaïnal
Sur une idée originale de : Baudouin d'Aumeries
Assistance à la programmation : Marc-Olivier Méhu
Soutien technique & logistique : Manuel Goepfert

Contact : metmap@orbifly.com




SOURCES & CREDITS :

   NOAA